Time;durP1;ratioP1;P1;durP2;ratioP2;P2;SDS_P1;SDS_P2;PMS_P1;PMS_P2;Temp;Humidity;BMP_temperature;BMP_pressure;BME280_temperature;BME280_humidity;BME280_pressure;Samples;Min_cycle;Max_cycle;Signal;HPM_P1;HPM_P2
2021/12/11 00:00:21;;;;;;;29.58;18.65;;;;;;;;;;6223546;23;20469;-82
2021/12/11 00:02:55;;;;;;;29.08;19.10;;;;;;;;;;6223759;23;20431;-82
2021/12/11 00:05:21;;;;;;;32.15;18.83;;;;;;;;;;6223195;23;20396;-82
2021/12/11 00:07:47;;;;;;;32.97;20.30;;;;;;;;;;6223584;23;20423;-82
2021/12/11 00:10:17;;;;;;;32.15;20.40;;;;;;;;;;6199062;23;20465;-83
2021/12/11 00:12:46;;;;;;;28.67;18.88;;;;;;;;;;6223085;23;20954;-82
2021/12/11 00:15:15;;;;;;;31.00;20.10;;;;;;;;;;6224651;23;20794;-82
2021/12/11 00:17:42;;;;;;;36.00;22.02;;;;;;;;;;6223850;23;20424;-81
2021/12/11 00:20:14;;;;;;;36.63;22.17;;;;;;;;;;6223853;23;20438;-81
2021/12/11 00:22:41;;;;;;;33.92;21.38;;;;;;;;;;6198995;23;20425;-82
2021/12/11 00:25:09;;;;;;;35.35;22.85;;;;;;;;;;6198396;23;20368;-82
2021/12/11 00:27:38;;;;;;;34.80;21.77;;;;;;;;;;6225075;23;20366;-82
2021/12/11 00:30:05;;;;;;;33.83;21.60;;;;;;;;;;6223276;23;20374;-82
2021/12/11 00:32:33;;;;;;;32.27;21.07;;;;;;;;;;6225024;23;20370;-82
2021/12/11 00:35:11;;;;;;;35.35;22.33;;;;;;;;;;6222857;23;20407;-82
2021/12/11 00:37:38;;;;;;;32.03;20.77;;;;;;;;;;6224697;23;20425;-83
2021/12/11 00:40:25;;;;;;;36.45;23.20;;;;;;;;;;6224117;23;21078;-82
2021/12/11 00:42:52;;;;;;;29.52;20.38;;;;;;;;;;6224754;23;20371;-82
2021/12/11 00:45:20;;;;;;;33.03;22.13;;;;;;;;;;6227476;23;20414;-82
2021/12/11 00:47:55;;;;;;;32.10;21.83;;;;;;;;;;6226625;23;20401;-82
2021/12/11 00:50:25;;;;;;;32.23;21.80;;;;;;;;;;6225548;23;20396;-82
2021/12/11 00:53:10;;;;;;;37.93;24.67;;;;;;;;;;6200245;23;20879;-82
2021/12/11 00:55:48;;;;;;;44.10;27.42;;;;;;;;;;6200668;23;20398;-81
2021/12/11 00:58:16;;;;;;;40.42;25.27;;;;;;;;;;6225903;23;20413;-82
2021/12/11 01:00:45;;;;;;;38.58;23.77;;;;;;;;;;6226379;23;20454;-81
2021/12/11 01:03:14;;;;;;;37.08;23.20;;;;;;;;;;6194956;22;20867;-77
2021/12/11 01:05:43;;;;;;;36.65;22.63;;;;;;;;;;6190764;23;20368;-82
2021/12/11 01:08:19;;;;;;;33.83;21.73;;;;;;;;;;6165317;23;20399;-82
2021/12/11 01:10:46;;;;;;;35.00;22.77;;;;;;;;;;6190961;23;20480;-82
2021/12/11 01:13:17;;;;;;;38.17;23.27;;;;;;;;;;6165007;23;20379;-82
2021/12/11 01:15:55;;;;;;;34.40;22.02;;;;;;;;;;6165282;23;20904;-83
2021/12/11 01:18:23;;;;;;;31.88;20.33;;;;;;;;;;6164221;23;20911;-75
2021/12/11 01:21:12;;;;;;;33.97;21.08;;;;;;;;;;6188031;23;20673;-77
2021/12/11 01:26:13;;;;;;;34.88;22.58;;;;;;;;;;6187749;23;20911;-74
2021/12/11 01:28:39;;;;;;;41.08;24.80;;;;;;;;;;6190470;23;20409;-82
2021/12/11 01:31:07;;;;;;;38.95;24.35;;;;;;;;;;6140910;23;20379;-83
2021/12/11 01:33:34;;;;;;;41.80;24.30;;;;;;;;;;6188774;23;20860;-81
2021/12/11 01:36:00;;;;;;;40.47;24.63;;;;;;;;;;6190053;23;20387;-83
2021/12/11 01:38:28;;;;;;;39.97;25.30;;;;;;;;;;6187759;23;20922;-75
2021/12/11 01:40:57;;;;;;;42.42;26.73;;;;;;;;;;6164258;23;20368;-81
2021/12/11 01:43:26;;;;;;;36.85;23.17;;;;;;;;;;6165713;23;20357;-81
2021/12/11 01:45:53;;;;;;;34.47;22.17;;;;;;;;;;6165570;23;20842;-81
2021/12/11 01:48:21;;;;;;;34.77;21.53;;;;;;;;;;6164437;23;20860;-75
2021/12/11 01:50:49;;;;;;;34.10;20.90;;;;;;;;;;6161912;23;20397;-75
2021/12/11 01:53:21;;;;;;;33.23;21.20;;;;;;;;;;6165017;23;20778;-81
2021/12/11 01:55:50;;;;;;;33.38;22.13;;;;;;;;;;6165459;23;20431;-81
2021/12/11 01:58:21;;;;;;;32.95;22.73;;;;;;;;;;6188796;23;20500;-77
2021/12/11 02:00:50;;;;;;;37.03;22.92;;;;;;;;;;6163322;23;20469;-83
2021/12/11 02:03:18;;;;;;;37.72;23.50;;;;;;;;;;6164940;23;20378;-82
2021/12/11 02:05:44;;;;;;;37.35;23.10;;;;;;;;;;6189156;23;20395;-82
2021/12/11 02:08:17;;;;;;;36.90;22.53;;;;;;;;;;6190184;23;20367;-82
2021/12/11 02:10:46;;;;;;;32.45;20.70;;;;;;;;;;6190158;23;20472;-83
2021/12/11 02:13:19;;;;;;;33.65;21.75;;;;;;;;;;6168448;23;20470;-83
2021/12/11 02:15:49;;;;;;;33.25;21.08;;;;;;;;;;6166810;23;20421;-81
2021/12/11 02:18:20;;;;;;;35.15;21.80;;;;;;;;;;6141285;23;20411;-83
2021/12/11 02:20:55;;;;;;;37.17;22.30;;;;;;;;;;6165686;23;20400;-82
2021/12/11 02:23:21;;;;;;;36.70;23.85;;;;;;;;;;6189895;23;20855;-84
2021/12/11 02:25:50;;;;;;;41.05;24.52;;;;;;;;;;6164274;23;20402;-76
2021/12/11 02:28:20;;;;;;;40.75;24.98;;;;;;;;;;6186688;23;20371;-77
2021/12/11 02:30:49;;;;;;;35.60;21.90;;;;;;;;;;6162059;23;20476;-76
2021/12/11 02:33:27;;;;;;;34.05;21.45;;;;;;;;;;6162346;23;20372;-76
2021/12/11 02:35:55;;;;;;;35.97;22.33;;;;;;;;;;6186826;23;20871;-76
2021/12/11 02:38:37;;;;;;;35.45;21.70;;;;;;;;;;6186783;23;20418;-76
2021/12/11 02:41:06;;;;;;;38.83;23.15;;;;;;;;;;6162673;23;20381;-76
2021/12/11 02:43:38;;;;;;;36.50;23.10;;;;;;;;;;6186472;23;20428;-76
2021/12/11 02:46:07;;;;;;;35.95;21.60;;;;;;;;;;6163938;23;20473;-84
2021/12/11 02:48:36;;;;;;;34.45;20.80;;;;;;;;;;6165102;23;20363;-84
2021/12/11 02:51:12;;;;;;;35.05;21.15;;;;;;;;;;6189746;23;20366;-83
2021/12/11 02:53:59;;;;;;;33.97;20.83;;;;;;;;;;6164819;23;20410;-84
2021/12/11 02:56:36;;;;;;;33.90;21.30;;;;;;;;;;6190437;23;20764;-83
2021/12/11 02:59:08;;;;;;;36.70;21.90;;;;;;;;;;6165058;23;20510;-82
2021/12/11 03:01:41;;;;;;;37.40;22.83;;;;;;;;;;6164725;23;20415;-82
2021/12/11 03:04:23;;;;;;;39.08;23.30;;;;;;;;;;6164599;23;20475;-83
2021/12/11 03:06:51;;;;;;;40.13;24.73;;;;;;;;;;6165300;23;20541;-81
2021/12/11 03:09:20;;;;;;;34.15;22.27;;;;;;;;;;6165021;23;20398;-82
2021/12/11 03:11:46;;;;;;;38.95;23.42;;;;;;;;;;6165261;23;20430;-82
2021/12/11 03:14:14;;;;;;;35.72;21.80;;;;;;;;;;6140370;23;20368;-83
2021/12/11 03:16:41;;;;;;;32.85;20.17;;;;;;;;;;6165218;23;20366;-84
2021/12/11 03:19:10;;;;;;;35.17;20.95;;;;;;;;;;6164497;23;20524;-84
2021/12/11 03:21:37;;;;;;;34.13;21.63;;;;;;;;;;6164315;23;20388;-85
2021/12/11 03:24:04;;;;;;;35.13;21.45;;;;;;;;;;6188857;23;20753;-85
2021/12/11 03:26:30;;;;;;;34.35;20.90;;;;;;;;;;6163696;23;20654;-75
2021/12/11 03:28:56;;;;;;;41.35;23.45;;;;;;;;;;6138175;23;20689;-77
2021/12/11 03:31:22;;;;;;;39.05;23.40;;;;;;;;;;6136895;23;20912;-78
2021/12/11 03:33:51;;;;;;;39.28;23.17;;;;;;;;;;6187491;23;20749;-77
2021/12/11 03:36:18;;;;;;;37.63;22.35;;;;;;;;;;6162412;23;20398;-78
2021/12/11 03:38:47;;;;;;;39.25;22.48;;;;;;;;;;6161729;23;20415;-78
2021/12/11 03:41:13;;;;;;;37.72;22.52;;;;;;;;;;6186889;23;20447;-78
2021/12/11 03:43:40;;;;;;;32.67;20.77;;;;;;;;;;6161823;23;20365;-79
2021/12/11 03:46:08;;;;;;;36.97;21.30;;;;;;;;;;6188400;23;20371;-77
2021/12/11 03:48:42;;;;;;;35.38;21.48;;;;;;;;;;6162355;23;20437;-74
2021/12/11 03:51:09;;;;;;;30.02;20.27;;;;;;;;;;6163272;23;20834;-76
2021/12/11 03:53:36;;;;;;;35.10;21.00;;;;;;;;;;6186501;23;20430;-76
2021/12/11 03:56:05;;;;;;;33.22;20.33;;;;;;;;;;6162153;23;20454;-85
2021/12/11 03:58:31;;;;;;;37.05;21.70;;;;;;;;;;6164609;23;20475;-85
2021/12/11 04:00:57;;;;;;;37.90;23.20;;;;;;;;;;6164667;23;20377;-84
2021/12/11 04:03:25;;;;;;;49.15;25.77;;;;;;;;;;6163049;23;20384;-77
2021/12/11 04:05:52;;;;;;;48.97;29.10;;;;;;;;;;6185838;23;20364;-78
2021/12/11 04:08:20;;;;;;;58.28;33.10;;;;;;;;;;6186238;23;20402;-77
2021/12/11 04:10:47;;;;;;;65.97;33.57;;;;;;;;;;6161415;23;20686;-78
2021/12/11 04:13:14;;;;;;;59.90;32.73;;;;;;;;;;6162367;23;20419;-78
2021/12/11 04:15:41;;;;;;;55.90;30.90;;;;;;;;;;6165315;23;20395;-77
2021/12/11 04:18:08;;;;;;;56.15;32.22;;;;;;;;;;6188143;23;20834;-76
2021/12/11 04:20:37;;;;;;;108.28;34.33;;;;;;;;;;6163657;23;20460;-77
2021/12/11 04:23:04;;;;;;;64.35;33.20;;;;;;;;;;6189502;23;20383;-84
2021/12/11 04:25:31;;;;;;;132.73;41.28;;;;;;;;;;6191109;23;20360;-85
2021/12/11 04:27:57;;;;;;;63.47;35.38;;;;;;;;;;6165253;23;20368;-85
2021/12/11 04:30:25;;;;;;;57.97;34.22;;;;;;;;;;6190885;23;20361;-85
2021/12/11 04:32:52;;;;;;;53.45;31.33;;;;;;;;;;6191411;23;20861;-85
2021/12/11 04:35:19;;;;;;;55.40;31.40;;;;;;;;;;6190826;23;20853;-84
2021/12/11 04:37:45;;;;;;;53.90;30.77;;;;;;;;;;6190315;23;20714;-85
2021/12/11 04:40:15;;;;;;;59.30;32.63;;;;;;;;;;6190833;23;21003;-85
2021/12/11 04:42:59;;;;;;;64.35;35.25;;;;;;;;;;6166524;23;20429;-84
2021/12/11 04:45:32;;;;;;;59.17;33.92;;;;;;;;;;6166404;23;20447;-84
2021/12/11 04:48:07;;;;;;;60.25;32.83;;;;;;;;;;6165286;23;20409;-85
2021/12/11 04:50:56;;;;;;;55.47;31.48;;;;;;;;;;6166355;23;20446;-84
2021/12/11 04:53:40;;;;;;;53.53;30.60;;;;;;;;;;6166796;23;25075;-85
2021/12/11 04:57:04;;;;;;;57.28;32.78;;;;;;;;;;6167026;23;20696;-84
2021/12/11 04:59:31;;;;;;;58.20;33.13;;;;;;;;;;6175077;23;20419;-85
2021/12/11 05:02:01;;;;;;;59.38;32.83;;;;;;;;;;6189191;23;25141;-84
2021/12/11 05:04:43;;;;;;;54.15;32.08;;;;;;;;;;6168509;23;25072;-85
2021/12/11 05:07:35;;;;;;;55.03;31.23;;;;;;;;;;6165442;23;20376;-84
2021/12/11 05:10:18;;;;;;;57.28;30.20;;;;;;;;;;6165619;23;25095;-84
2021/12/11 05:12:45;;;;;;;51.97;30.77;;;;;;;;;;6165419;23;25059;-84
2021/12/11 05:15:17;;;;;;;57.95;30.65;;;;;;;;;;6189657;23;20415;-84
2021/12/11 05:17:43;;;;;;;55.60;31.08;;;;;;;;;;6164149;23;20391;-84
2021/12/11 05:20:11;;;;;;;55.50;30.25;;;;;;;;;;6190367;23;20356;-85
2021/12/11 05:22:37;;;;;;;52.45;29.58;;;;;;;;;;6190724;23;20707;-86
2021/12/11 05:25:05;;;;;;;51.90;29.70;;;;;;;;;;6165394;23;20364;-86
2021/12/11 05:27:31;;;;;;;124.00;32.53;;;;;;;;;;6165160;23;20443;-85
2021/12/11 05:29:57;;;;;;;76.57;41.45;;;;;;;;;;6190083;23;20375;-86
2021/12/11 05:32:25;;;;;;;50.00;29.37;;;;;;;;;;6189785;23;20425;-83
2021/12/11 05:34:51;;;;;;;53.85;30.40;;;;;;;;;;6189578;23;20399;-85
2021/12/11 05:37:18;;;;;;;51.93;30.27;;;;;;;;;;6189881;23;20440;-84
2021/12/11 05:39:44;;;;;;;46.00;28.20;;;;;;;;;;6164692;23;20357;-84
2021/12/11 05:42:11;;;;;;;48.25;28.05;;;;;;;;;;6190182;23;20468;-85
2021/12/11 05:44:39;;;;;;;47.38;28.00;;;;;;;;;;6165002;23;20363;-84
2021/12/11 05:47:05;;;;;;;46.15;26.30;;;;;;;;;;6189596;23;20885;-84
2021/12/11 05:49:33;;;;;;;49.33;30.05;;;;;;;;;;6165285;23;20728;-84
2021/12/11 05:51:59;;;;;;;53.57;31.20;;;;;;;;;;6189804;23;20557;-84
2021/12/11 05:54:28;;;;;;;58.33;35.67;;;;;;;;;;6189363;23;20567;-84
2021/12/11 05:56:59;;;;;;;53.72;33.25;;;;;;;;;;6164188;23;20398;-84
2021/12/11 05:59:26;;;;;;;53.83;32.55;;;;;;;;;;6164702;23;20394;-84
2021/12/11 06:02:06;;;;;;;56.10;33.10;;;;;;;;;;6163741;23;20416;-84
2021/12/11 06:04:38;;;;;;;51.67;30.88;;;;;;;;;;6164452;23;25059;-84
2021/12/11 06:07:06;;;;;;;54.00;33.60;;;;;;;;;;6164986;23;20495;-83
2021/12/11 06:09:33;;;;;;;58.22;34.70;;;;;;;;;;6164299;23;20476;-84
2021/12/11 06:12:02;;;;;;;70.25;41.50;;;;;;;;;;6164771;23;20391;-83
2021/12/11 06:14:29;;;;;;;64.50;40.58;;;;;;;;;;6189724;23;20387;-85
2021/12/11 06:16:56;;;;;;;64.35;36.80;;;;;;;;;;6140308;23;20392;-85
2021/12/11 06:19:24;;;;;;;56.00;32.33;;;;;;;;;;6189589;23;20387;-85
2021/12/11 06:21:50;;;;;;;48.38;30.08;;;;;;;;;;6164494;23;20388;-85
2021/12/11 06:24:17;;;;;;;51.47;29.20;;;;;;;;;;6164966;23;20485;-85
2021/12/11 06:26:43;;;;;;;51.00;29.17;;;;;;;;;;6189702;23;20364;-85
2021/12/11 06:29:09;;;;;;;51.42;29.17;;;;;;;;;;6164951;23;20365;-85
2021/12/11 06:31:36;;;;;;;51.45;30.98;;;;;;;;;;6139991;23;20375;-85
2021/12/11 06:34:02;;;;;;;51.15;29.35;;;;;;;;;;6189399;23;20368;-85
2021/12/11 06:36:28;;;;;;;53.28;29.60;;;;;;;;;;6164263;23;20824;-85
2021/12/11 06:38:56;;;;;;;45.58;27.55;;;;;;;;;;6163120;23;20709;-85
2021/12/11 06:41:25;;;;;;;46.15;28.98;;;;;;;;;;6189538;23;20391;-85
2021/12/11 06:43:51;;;;;;;58.95;29.70;;;;;;;;;;6188917;23;20844;-78
2021/12/11 06:46:18;;;;;;;53.87;30.27;;;;;;;;;;6162232;23;20448;-78
2021/12/11 06:48:44;;;;;;;51.53;30.20;;;;;;;;;;6162216;23;20364;-77
2021/12/11 06:51:10;;;;;;;54.00;30.67;;;;;;;;;;6137414;23;20375;-77
2021/12/11 06:53:45;;;;;;;50.40;30.03;;;;;;;;;;6162744;23;20416;-77
2021/12/11 06:56:12;;;;;;;52.53;29.90;;;;;;;;;;6162460;23;20768;-78
2021/12/11 06:58:38;;;;;;;49.72;28.48;;;;;;;;;;6163129;23;20388;-77
2021/12/11 07:01:05;;;;;;;53.55;30.70;;;;;;;;;;6161674;23;20379;-78
2021/12/11 07:03:32;;;;;;;52.08;30.70;;;;;;;;;;6162168;23;20380;-76
2021/12/11 07:05:58;;;;;;;48.57;28.03;;;;;;;;;;6162353;23;20370;-77
2021/12/11 07:08:26;;;;;;;50.35;28.35;;;;;;;;;;6186761;23;20403;-77
2021/12/11 07:10:53;;;;;;;52.80;28.95;;;;;;;;;;6187450;23;20493;-77
2021/12/11 07:13:19;;;;;;;52.88;30.35;;;;;;;;;;6185927;23;20475;-77
2021/12/11 07:15:45;;;;;;;54.70;30.45;;;;;;;;;;6187754;23;20498;-78
2021/12/11 07:18:11;;;;;;;59.30;31.35;;;;;;;;;;6162545;23;20887;-79
2021/12/11 07:20:37;;;;;;;57.67;32.30;;;;;;;;;;6161028;23;20461;-76
2021/12/11 07:23:04;;;;;;;58.42;32.72;;;;;;;;;;6185525;23;20364;-76
2021/12/11 07:25:38;;;;;;;67.00;36.28;;;;;;;;;;6160889;23;20417;-76
2021/12/11 07:28:05;;;;;;;98.20;55.88;;;;;;;;;;6186458;23;20876;-78
2021/12/11 07:30:36;;;;;;;130.65;52.72;;;;;;;;;;6161174;23;20425;-79
2021/12/11 07:33:04;;;;;;;114.30;53.72;;;;;;;;;;6186712;23;20481;-78
2021/12/11 07:35:31;;;;;;;94.45;46.90;;;;;;;;;;6187205;23;20880;-78
2021/12/11 07:37:57;;;;;;;105.65;50.85;;;;;;;;;;6161393;23;20394;-78
2021/12/11 07:40:25;;;;;;;530.33;92.43;;;;;;;;;;6186993;23;20364;-77
2021/12/11 07:42:51;;;;;;;682.40;115.63;;;;;;;;;;6162271;23;20398;-77
2021/12/11 07:45:18;;;;;;;805.63;137.98;;;;;;;;;;6137370;23;20387;-77
2021/12/11 07:47:45;;;;;;;186.07;70.93;;;;;;;;;;6185879;23;21153;-77
2021/12/11 07:50:12;;;;;;;179.43;62.42;;;;;;;;;;6161101;23;20368;-78
2021/12/11 07:52:39;;;;;;;104.78;50.97;;;;;;;;;;6161742;23;20361;-77
2021/12/11 07:55:05;;;;;;;107.45;48.90;;;;;;;;;;6161742;23;20792;-75
2021/12/11 07:57:31;;;;;;;99.28;46.83;;;;;;;;;;6185999;23;20841;-77
2021/12/11 07:59:57;;;;;;;92.22;44.65;;;;;;;;;;6187204;23;20367;-77
2021/12/11 08:02:24;;;;;;;81.18;43.00;;;;;;;;;;6160059;23;20387;-74
2021/12/11 08:04:50;;;;;;;98.97;46.83;;;;;;;;;;6186716;23;20725;-77
2021/12/11 08:07:16;;;;;;;120.25;50.92;;;;;;;;;;6137779;23;20399;-77
2021/12/11 08:09:43;;;;;;;543.78;87.60;;;;;;;;;;6185673;23;20501;-76
2021/12/11 08:12:09;;;;;;;89.35;45.85;;;;;;;;;;6162379;23;20367;-77
2021/12/11 08:14:35;;;;;;;82.57;43.20;;;;;;;;;;6161926;23;20367;-75
2021/12/11 08:17:05;;;;;;;89.95;45.38;;;;;;;;;;6185603;23;20371;-75
2021/12/11 08:19:31;;;;;;;97.83;48.20;;;;;;;;;;6185998;23;20408;-76
2021/12/11 08:21:59;;;;;;;91.43;46.10;;;;;;;;;;6185285;23;20887;-75
2021/12/11 08:24:27;;;;;;;85.72;44.72;;;;;;;;;;6186475;23;20813;-76
2021/12/11 08:26:54;;;;;;;234.40;58.60;;;;;;;;;;6161432;23;20891;-76
2021/12/11 08:29:23;;;;;;;171.90;55.78;;;;;;;;;;6161671;23;20367;-76
2021/12/11 08:31:51;;;;;;;86.88;46.38;;;;;;;;;;6160559;23;20479;-76
2021/12/11 08:34:17;;;;;;;91.30;47.33;;;;;;;;;;6161156;23;20356;-77
2021/12/11 08:36:43;;;;;;;111.28;51.63;;;;;;;;;;6185506;23;20368;-77
2021/12/11 08:39:11;;;;;;;116.28;52.38;;;;;;;;;;6160078;23;20891;-77
2021/12/11 08:41:38;;;;;;;154.13;55.67;;;;;;;;;;6186288;23;20357;-82
2021/12/11 08:44:10;;;;;;;123.82;53.55;;;;;;;;;;6163174;23;20360;-81
2021/12/11 08:46:37;;;;;;;236.70;62.40;;;;;;;;;;6189893;23;20368;-81
2021/12/11 08:49:06;;;;;;;98.60;49.35;;;;;;;;;;6189086;23;20371;-83
2021/12/11 08:51:34;;;;;;;229.35;63.30;;;;;;;;;;6162237;23;20364;-82
2021/12/11 08:54:01;;;;;;;585.45;100.97;;;;;;;;;;6187603;23;20381;-83
2021/12/11 08:56:28;;;;;;;525.35;92.85;;;;;;;;;;6188023;23;20444;-82
2021/12/11 08:58:55;;;;;;;198.25;62.50;;;;;;;;;;6187911;23;20881;-82
2021/12/11 09:01:28;;;;;;;95.03;48.45;;;;;;;;;;6163308;23;20375;-82
2021/12/11 09:03:57;;;;;;;106.22;50.00;;;;;;;;;;6184600;23;20455;-81
2021/12/11 09:06:27;;;;;;;182.23;56.17;;;;;;;;;;6183984;23;20375;-82
2021/12/11 09:08:59;;;;;;;166.57;59.80;;;;;;;;;;6182017;23;20430;-79
2021/12/11 09:11:28;;;;;;;100.03;49.53;;;;;;;;;;6159188;23;20373;-80
2021/12/11 09:13:56;;;;;;;93.82;49.15;;;;;;;;;;6184123;23;20377;-78
2021/12/11 09:16:28;;;;;;;306.23;67.97;;;;;;;;;;6184337;23;20369;-78
2021/12/11 09:19:10;;;;;;;323.52;69.60;;;;;;;;;;6158633;23;20895;-79
2021/12/11 09:21:49;;;;;;;93.22;49.60;;;;;;;;;;6185672;23;25062;-79
2021/12/11 09:24:20;;;;;;;96.00;49.53;;;;;;;;;;6184116;23;20372;-83
2021/12/11 09:26:50;;;;;;;100.77;50.67;;;;;;;;;;6159238;23;20365;-80
2021/12/11 09:29:20;;;;;;;99.30;51.25;;;;;;;;;;6182702;23;20374;-79
2021/12/11 09:31:56;;;;;;;97.35;50.60;;;;;;;;;;6183241;23;20727;-78
2021/12/11 09:34:27;;;;;;;97.88;50.42;;;;;;;;;;6158603;23;20406;-80
2021/12/11 09:36:57;;;;;;;92.10;50.00;;;;;;;;;;6185443;23;20423;-80
2021/12/11 09:39:43;;;;;;;88.82;47.85;;;;;;;;;;6184971;23;20420;-78
2021/12/11 09:42:09;;;;;;;87.90;46.75;;;;;;;;;;6184217;23;20381;-80
2021/12/11 09:44:38;;;;;;;80.53;44.95;;;;;;;;;;6185646;23;20661;-81
2021/12/11 09:47:09;;;;;;;122.95;47.65;;;;;;;;;;6185687;23;20357;-79
2021/12/11 09:49:38;;;;;;;152.07;50.30;;;;;;;;;;6185585;23;20699;-80
2021/12/11 09:52:23;;;;;;;69.85;42.35;;;;;;;;;;6159773;23;20427;-79
2021/12/11 09:54:51;;;;;;;67.83;40.17;;;;;;;;;;6184236;23;20377;-79
2021/12/11 09:57:18;;;;;;;99.47;42.13;;;;;;;;;;6186409;23;20369;-80
2021/12/11 09:59:46;;;;;;;98.60;42.38;;;;;;;;;;6185643;23;20866;-79
2021/12/11 10:02:17;;;;;;;99.33;43.73;;;;;;;;;;6160028;23;20468;-79
2021/12/11 10:04:56;;;;;;;67.18;41.08;;;;;;;;;;6184764;23;20366;-79
2021/12/11 10:07:35;;;;;;;77.25;44.72;;;;;;;;;;6160130;23;20372;-78
2021/12/11 10:10:11;;;;;;;84.00;45.10;;;;;;;;;;6187250;23;20365;-78
2021/12/11 10:12:39;;;;;;;71.85;41.63;;;;;;;;;;6183538;23;20409;-79
2021/12/11 10:15:26;;;;;;;74.00;41.97;;;;;;;;;;6159479;23;21059;-79
2021/12/11 10:17:55;;;;;;;79.93;44.63;;;;;;;;;;6163598;23;20428;-79
2021/12/11 10:20:43;;;;;;;94.20;45.40;;;;;;;;;;6159509;23;20372;-78
2021/12/11 10:23:10;;;;;;;77.07;43.20;;;;;;;;;;6186091;23;20362;-78
2021/12/11 10:25:39;;;;;;;77.13;42.05;;;;;;;;;;6184729;23;20451;-78
2021/12/11 10:28:06;;;;;;;81.43;43.08;;;;;;;;;;6158917;23;20460;-76
2021/12/11 10:30:35;;;;;;;110.43;46.40;;;;;;;;;;6184515;23;20373;-78
2021/12/11 10:33:03;;;;;;;85.37;44.87;;;;;;;;;;6183557;23;20380;-78
2021/12/11 10:35:32;;;;;;;70.95;40.38;;;;;;;;;;6184626;23;20420;-77
2021/12/11 10:38:00;;;;;;;78.68;41.10;;;;;;;;;;6182524;23;20389;-76
2021/12/11 10:40:28;;;;;;;156.60;50.17;;;;;;;;;;6183166;23;20377;-78
2021/12/11 10:43:03;;;;;;;181.85;46.83;;;;;;;;;;6183515;23;20383;-76
2021/12/11 10:45:30;;;;;;;223.93;51.53;;;;;;;;;;6183321;23;20369;-77
2021/12/11 10:48:00;;;;;;;101.95;40.60;;;;;;;;;;6183120;23;20369;-77
2021/12/11 10:50:46;;;;;;;263.52;53.47;;;;;;;;;;6158091;23;20807;-78
2021/12/11 10:53:15;;;;;;;96.82;43.50;;;;;;;;;;6183062;23;20464;-78
2021/12/11 10:55:41;;;;;;;147.57;44.70;;;;;;;;;;6158225;23;20449;-78
2021/12/11 10:58:15;;;;;;;169.23;46.53;;;;;;;;;;6182805;23;20393;-79
2021/12/11 11:00:54;;;;;;;512.65;75.22;;;;;;;;;;6158677;23;20369;-76
2021/12/11 11:03:21;;;;;;;282.35;57.38;;;;;;;;;;6157724;23;20381;-79
2021/12/11 11:05:48;;;;;;;169.63;47.92;;;;;;;;;;6185233;23;20420;-78
2021/12/11 11:08:15;;;;;;;136.83;45.17;;;;;;;;;;6183665;23;20366;-80
2021/12/11 11:10:44;;;;;;;341.92;61.88;;;;;;;;;;6182277;23;20504;-80
2021/12/11 11:13:12;;;;;;;103.68;44.13;;;;;;;;;;6181318;23;20672;-80
2021/12/11 11:15:39;;;;;;;82.47;42.67;;;;;;;;;;6183245;23;20373;-79
2021/12/11 11:18:08;;;;;;;94.63;45.13;;;;;;;;;;6157375;23;20396;-79
2021/12/11 11:20:36;;;;;;;92.57;42.58;;;;;;;;;;6184435;23;20364;-79
2021/12/11 11:23:04;;;;;;;82.47;42.15;;;;;;;;;;6181808;23;20691;-80
2021/12/11 11:25:32;;;;;;;103.90;44.10;;;;;;;;;;6157985;23;20365;-80
2021/12/11 11:28:00;;;;;;;99.57;42.15;;;;;;;;;;6157028;23;20369;-78
2021/12/11 11:30:47;;;;;;;115.72;45.42;;;;;;;;;;6182232;23;20496;-80
2021/12/11 11:33:14;;;;;;;174.38;49.03;;;;;;;;;;6181707;23;20468;-79
2021/12/11 11:35:42;;;;;;;102.60;41.88;;;;;;;;;;6185386;23;20416;-79
2021/12/11 11:38:13;;;;;;;98.35;42.63;;;;;;;;;;6185313;23;20425;-80
2021/12/11 11:40:42;;;;;;;187.25;48.97;;;;;;;;;;6183443;23;20484;-80
2021/12/11 11:43:09;;;;;;;73.67;40.17;;;;;;;;;;6183419;23;20500;-80
2021/12/11 11:45:35;;;;;;;74.67;40.87;;;;;;;;;;6158907;23;20686;-79
2021/12/11 11:48:02;;;;;;;66.53;38.83;;;;;;;;;;6182637;23;20505;-79
2021/12/11 11:50:31;;;;;;;102.68;42.78;;;;;;;;;;6183026;23;20373;-82
2021/12/11 11:52:57;;;;;;;91.90;40.58;;;;;;;;;;6182964;23;20849;-81
2021/12/11 11:55:31;;;;;;;62.25;36.92;;;;;;;;;;6162036;23;20440;-81
2021/12/11 11:57:59;;;;;;;60.10;37.70;;;;;;;;;;6186049;23;20443;-80
2021/12/11 12:00:52;;;;;;;64.18;39.00;;;;;;;;;;6189049;23;20365;-80
2021/12/11 12:03:26;;;;;;;67.10;39.28;;;;;;;;;;6159723;23;20381;-80
2021/12/11 12:05:55;;;;;;;64.73;38.67;;;;;;;;;;6187536;23;20365;-80
2021/12/11 12:08:21;;;;;;;65.90;37.70;;;;;;;;;;6187119;23;20451;-81
2021/12/11 12:10:49;;;;;;;67.28;40.65;;;;;;;;;;6160310;23;20683;-80
2021/12/11 12:13:17;;;;;;;66.20;39.08;;;;;;;;;;6161747;23;20377;-80
2021/12/11 12:15:49;;;;;;;60.70;38.15;;;;;;;;;;6161245;23;20369;-79
2021/12/11 12:18:17;;;;;;;65.22;39.33;;;;;;;;;;6185091;23;20727;-80
2021/12/11 12:20:47;;;;;;;130.75;48.50;;;;;;;;;;6155514;23;20854;-80
2021/12/11 12:23:16;;;;;;;77.88;42.55;;;;;;;;;;6155368;23;20674;-80
2021/12/11 12:25:43;;;;;;;69.00;38.60;;;;;;;;;;6182191;23;20416;-80
2021/12/11 12:28:10;;;;;;;65.22;38.90;;;;;;;;;;6154836;23;20382;-79
2021/12/11 12:30:38;;;;;;;71.40;39.58;;;;;;;;;;6178269;23;20847;-80
2021/12/11 12:33:06;;;;;;;71.00;40.03;;;;;;;;;;6155646;23;20422;-78
2021/12/11 12:35:32;;;;;;;64.63;37.92;;;;;;;;;;6180350;23;20376;-78
2021/12/11 12:37:59;;;;;;;69.20;38.25;;;;;;;;;;6181966;23;20704;-78
2021/12/11 12:40:29;;;;;;;66.78;39.45;;;;;;;;;;6181828;23;20383;-78
2021/12/11 12:43:04;;;;;;;65.03;38.30;;;;;;;;;;6180172;23;20420;-79
2021/12/11 12:45:33;;;;;;;61.42;36.83;;;;;;;;;;6183103;23;20716;-78
2021/12/11 12:48:04;;;;;;;56.97;35.50;;;;;;;;;;6183682;23;20362;-78
2021/12/11 12:50:39;;;;;;;61.65;37.20;;;;;;;;;;6181372;23;20455;-79
2021/12/11 12:53:06;;;;;;;63.97;37.85;;;;;;;;;;6181127;23;20373;-79
2021/12/11 12:55:35;;;;;;;50.35;33.25;;;;;;;;;;6157140;23;20396;-78
2021/12/11 12:58:07;;;;;;;53.22;32.10;;;;;;;;;;6179753;23;20400;-78
2021/12/11 13:00:36;;;;;;;51.58;32.10;;;;;;;;;;6181985;23;20431;-79
2021/12/11 13:03:05;;;;;;;54.63;34.05;;;;;;;;;;6181453;23;20381;-79
2021/12/11 13:05:35;;;;;;;59.47;34.43;;;;;;;;;;6156866;23;20499;-79
2021/12/11 13:08:11;;;;;;;58.63;33.10;;;;;;;;;;6180961;23;20418;-80
2021/12/11 13:10:42;;;;;;;52.70;32.85;;;;;;;;;;6182103;23;20827;-78
2021/12/11 13:13:09;;;;;;;51.13;31.60;;;;;;;;;;6181956;23;20763;-79
2021/12/11 13:15:41;;;;;;;50.58;30.35;;;;;;;;;;6157234;23;20680;-81
2021/12/11 13:18:10;;;;;;;48.83;29.97;;;;;;;;;;6157309;23;20954;-79
2021/12/11 13:21:02;;;;;;;50.78;30.45;;;;;;;;;;6182073;23;20392;-79
2021/12/11 13:23:28;;;;;;;54.00;30.65;;;;;;;;;;6182445;23;20452;-80
2021/12/11 13:25:59;;;;;;;46.67;29.15;;;;;;;;;;6156335;23;20353;-80
2021/12/11 13:28:27;;;;;;;50.88;29.38;;;;;;;;;;6156709;23;20379;-79
2021/12/11 13:30:54;;;;;;;47.03;29.42;;;;;;;;;;6182830;23;20401;-80
2021/12/11 13:33:25;;;;;;;47.88;30.33;;;;;;;;;;6185355;23;20396;-81
2021/12/11 13:35:55;;;;;;;49.97;28.90;;;;;;;;;;6179425;23;20491;-78
2021/12/11 13:38:22;;;;;;;48.92;29.33;;;;;;;;;;6152263;23;20895;-78
2021/12/11 13:40:52;;;;;;;49.30;29.48;;;;;;;;;;6178897;23;20373;-78
2021/12/11 13:43:18;;;;;;;53.30;31.35;;;;;;;;;;6153387;23;21329;-78
2021/12/11 13:45:47;;;;;;;47.75;29.05;;;;;;;;;;6153272;23;20464;-78
2021/12/11 13:48:15;;;;;;;51.85;28.98;;;;;;;;;;6155088;23;20376;-83
2021/12/11 13:50:51;;;;;;;46.97;29.63;;;;;;;;;;6178782;23;20865;-85
2021/12/11 13:53:20;;;;;;;45.35;29.25;;;;;;;;;;6153860;23;20435;-83
2021/12/11 13:55:46;;;;;;;79.00;33.88;;;;;;;;;;6156379;23;20369;-84
2021/12/11 13:58:13;;;;;;;49.70;29.70;;;;;;;;;;6178737;23;20400;-83
2021/12/11 14:00:46;;;;;;;49.30;29.50;;;;;;;;;;6155541;23;20471;-85
2021/12/11 14:03:14;;;;;;;47.08;30.70;;;;;;;;;;6181501;23;20385;-85
2021/12/11 14:05:41;;;;;;;53.65;32.75;;;;;;;;;;6156220;23;20393;-83
2021/12/11 14:08:10;;;;;;;53.08;32.70;;;;;;;;;;6155317;23;20369;-83
2021/12/11 14:10:36;;;;;;;50.45;31.67;;;;;;;;;;6158382;23;20369;-82
2021/12/11 14:13:04;;;;;;;53.05;32.92;;;;;;;;;;6134378;23;20384;-81
2021/12/11 14:15:31;;;;;;;56.72;34.83;;;;;;;;;;6159041;23;20436;-84
2021/12/11 14:17:57;;;;;;;53.13;34.00;;;;;;;;;;6159429;23;20696;-82
2021/12/11 14:20:28;;;;;;;56.85;34.95;;;;;;;;;;6160204;23;20429;-81
2021/12/11 14:22:54;;;;;;;57.27;35.40;;;;;;;;;;6158432;23;20487;-82
2021/12/11 14:25:21;;;;;;;59.20;35.97;;;;;;;;;;6183042;23;20369;-81
2021/12/11 14:27:49;;;;;;;59.53;36.63;;;;;;;;;;6183651;23;20835;-85
2021/12/11 14:30:19;;;;;;;63.35;36.60;;;;;;;;;;6185532;23;20684;-86